Flight Track Log - Related Links

Times and Time Zones

All times are in EDT time to prevent confusion due to time zone crossing. See the UAL709 flight status page for this flight to view local times or setup timezone preferences in your user account.

Time Position Orientation Groundspeed Altitude Reporting Facility
EDT Latitude Longitude Course Direction KTS MPH feet Rate Location/Type
Mon 11:44:57 AM 42.0000 -88.0000 252° West 207 238 2,700  Level Chicago TRACON
Mon 11:46:49 AM 41.9906 -88.1597 266° West 243 280 6,500 2,345 Climbing Chicago Center
Mon 11:47:00 AM 41.8302 -88.4977 254° West  Level FlightAware Approximate
Mon 11:47:51 AM 41.9869 -88.2611 267° West 268 308 9,500  Level Chicago Center
Mon 11:48:00 AM 41.7967 -88.6494 254° West  Level FlightAware Approximate
Mon 11:48:53 AM 41.9669 -88.3869 258° West 293 337 12,100  Level Chicago Center
Mon 11:49:00 AM 41.7630 -88.8010 253° West  Level FlightAware Approximate
Mon 11:49:55 AM 41.9353 -88.5031 250° West 328 377 13,200  Level Chicago Center
Mon 11:50:00 AM 41.7296 -88.9482 252° West  Level FlightAware Approximate
Mon 11:50:57 AM 41.9000 -88.6314 250° West 360 414 15,000  Level Chicago Center
Mon 11:51:59 AM 41.8644 -88.7608 250° West 373 429 17,100 1,935 Climbing Chicago Center
Mon 11:53:01 AM 41.8203 -88.9183 249° West 377 434 19,000 1,742 Climbing Chicago Center
Mon 11:54:03 AM 41.7808 -89.0525 249° West 388 447 20,700 1,403 Climbing Chicago Center
Mon 11:55:05 AM 41.7519 -89.1928 255° West 398 458 21,900 1,161 Climbing Chicago Center
Mon 11:56:07 AM 41.7286 -89.3403 258° West 404 465 23,100 1,355 Climbing Chicago Center
Mon 11:57:09 AM 41.7036 -89.4886 257° West 410 472 24,700 1,452 Climbing Chicago Center
Mon 11:58:11 AM 41.6728 -89.6628 257° West 412 474 26,100 1,161 Climbing Chicago Center
Mon 11:59:13 AM 41.6469 -89.8164 257° West 420 483 27,100 968 Climbing Chicago Center
Mon 12:00:15 PM 41.6208 -89.9717 257° West 427 491 28,100 1,016 Climbing Chicago Center
Mon 12:01:17 PM 41.5942 -90.1300 257° West 435 501 29,200 968 Climbing Chicago Center
Mon 12:02:19 PM 41.5650 -90.2894 256° West 441 507 30,100 968 Climbing Chicago Center
Mon 12:03:21 PM 41.5367 -90.4483 257° West 442 509 31,200 1,161 Climbing Chicago Center
Mon 12:04:23 PM 41.5033 -90.6336 257° West 433 498 32,500 1,065 Climbing Chicago Center
Mon 12:05:25 PM 41.4750 -90.7892 256° West 431 496 33,400 726 Climbing Chicago Center
Mon 12:06:27 PM 41.4475 -90.9431 257° West 430 495 34,000 290 Climbing Chicago Center
Mon 12:07:29 PM 41.4194 -91.0947 256° West 426 490 34,000  Level Chicago Center
Mon 12:08:31 PM 41.3908 -91.2472 256° West 429 494 34,000  Level Chicago Center
Mon 12:09:33 PM 41.3569 -91.4311 256° West 426 490 34,000  Level Chicago Center
Mon 12:10:36 PM 41.3286 -91.5808 256° West 423 487 34,000  Level Chicago Center
Mon 12:11:38 PM 41.2994 -91.7314 256° West 422 486 34,000  Level Chicago Center
Mon 12:12:40 PM 41.2719 -91.8828 256° West 424 488 34,000  Level Chicago Center
Mon 12:13:42 PM 41.2422 -92.0322 255° West 422 486 34,000  Level Chicago Center
Mon 12:14:44 PM 41.2108 -92.1933 256° West 422 486 34,000  Level Chicago Center
Mon 12:15:46 PM 41.1817 -92.3417 255° West 422 486 34,000  Level Chicago Center
Mon 12:16:48 PM 41.1464 -92.5197 255° West 421 484 34,000  Level Chicago Center
Mon 12:17:50 PM 41.1167 -92.6686 255° West 423 487 34,000  Level Chicago Center
Mon 12:18:52 PM 41.0872 -92.8136 255° West 416 479 34,000  Level Chicago Center
Mon 12:19:54 PM 41.0578 -92.9583 255° West 413 475 34,000  Level Chicago Center
Mon 12:20:56 PM 41.0281 -93.1061 255° West 417 480 34,000  Level Chicago Center
Mon 12:21:58 PM 40.9919 -93.2819 255° West 417 480 34,000  Level Chicago Center
Mon 12:23:00 PM 40.9614 -93.4258 254° West 413 475 34,000  Level Chicago Center
Mon 12:24:02 PM 40.9317 -93.5703 255° West 411 473 34,000  Level Chicago Center
Mon 12:25:05 PM 40.9017 -93.7167 255° West 415 478 34,000  Level Chicago Center
Mon 12:26:07 PM 40.8647 -93.8889 254° West 411 473 34,000  Level Chicago Center
Mon 12:27:09 PM 40.8342 -94.0339 254° West 413 475 34,000  Level Chicago Center
Mon 12:28:11 PM 40.8039 -94.1794 255° West 416 479 34,000  Level Chicago Center
Mon 12:29:13 PM 40.7722 -94.3242 254° West 414 476 34,000  Level Chicago Center
Mon 12:30:15 PM 40.7397 -94.4692 254° West 415 478 34,000  Level Chicago Center
Mon 12:31:43 PM 40.6906 -94.6897 254° West 420 483 34,000  Level Minneapolis Center
Mon 12:32:45 PM 40.6500 -94.8703 254° West 424 488 34,000  Level Minneapolis Center
Mon 12:33:47 PM 40.6167 -95.0214 254° West 427 491 34,000  Level Minneapolis Center
Mon 12:34:49 PM 40.5836 -95.1731 254° West 430 495 34,000  Level Minneapolis Center
Mon 12:35:51 PM 40.5486 -95.3247 253° West 430 495 34,000  Level Minneapolis Center
Mon 12:36:53 PM 40.5142 -95.4764 253° West 431 496 34,000  Level Minneapolis Center
Mon 12:37:55 PM 40.4797 -95.6297 254° West 433 498 34,000  Level Minneapolis Center
Mon 12:38:57 PM 40.4439 -95.7817 253° West 434 499 34,000  Level Minneapolis Center
Mon 12:40:11 PM 40.4022 -95.9625 253° West 431 496 34,000  Level Minneapolis Center
Mon 12:41:14 PM 40.3603 -96.1439 253° West 433 498 34,000 -48 Level Minneapolis Center
Mon 12:42:16 PM 40.3256 -96.2925 253° West 428 493 33,900 -48 Descending Minneapolis Center
Mon 12:43:18 PM 40.2892 -96.4419 252° West 429 494 33,900 48 Level Minneapolis Center
Mon 12:44:20 PM 40.2536 -96.5936 253° West 433 498 34,000 48 Climbing Minneapolis Center
Mon 12:45:22 PM 40.2172 -96.7458 253° West 437 503 34,000  Level Minneapolis Center
Mon 12:46:24 PM 40.1800 -96.9000 253° West 441 507 34,000  Level Minneapolis Center
Mon 12:47:26 PM 40.1353 -97.0836 252° West 443 510 34,000  Level Minneapolis Center
Mon 12:48:28 PM 40.0964 -97.2397 252° West 447 514 34,000  Level Minneapolis Center
Mon 12:49:31 PM 40.0603 -97.3833 252° West 448 516 34,000  Level Minneapolis Center
Mon 12:50:33 PM 40.0217 -97.5389 252° West 449 517 34,000  Level Minneapolis Center
Mon 12:51:34 PM 39.9833 -97.6925 252° West 446 513 34,000  Level Minneapolis Center
Mon 12:52:37 PM 39.9364 -97.8781 252° West 447 514 34,000  Level Minneapolis Center
Mon 12:53:38 PM 39.9064 -98.0008 252° West 446 513 34,000  Level Minneapolis Center
Mon 12:54:41 PM 39.8589 -98.1867 252° West 448 516 34,000  Level Minneapolis Center
Mon 12:55:43 PM 39.8189 -98.3419 252° West 450 518 34,000  Level Minneapolis Center
Mon 12:56:45 PM 39.7789 -98.4958 251° West 449 517 34,000  Level Minneapolis Center
Mon 12:57:47 PM 39.7386 -98.6511 251° West 451 519 34,000  Level Minneapolis Center
Mon 12:58:49 PM 39.6897 -98.8350 251° West 450 518 34,000  Level Minneapolis Center
Mon 12:59:51 PM 39.6500 -98.9897 252° West 450 518 34,000  Level Minneapolis Center
Mon 01:00:53 PM 39.6092 -99.1431 251° West 450 518 34,000  Level Minneapolis Center
Mon 01:01:55 PM 39.5686 -99.2964 251° West 450 518 34,000  Level Denver Center
Mon 01:02:57 PM 39.5267 -99.4511 251° West 453 521 34,000  Level Denver Center
Mon 01:03:59 PM 39.4842 -99.6047 250° West 453 521 34,000  Level Denver Center
Mon 01:05:01 PM 39.4392 -99.7706 251° West 451 519 34,000  Level Denver Center
Mon 01:06:03 PM 39.3925 -99.9447 251° West 456 525 34,000  Level Denver Center
Mon 01:07:05 PM 39.3514 -100.0931 250° West 457 526 34,000  Level Denver Center
Mon 01:08:07 PM 39.3042 -100.2636 250° West 452 520 34,000  Level Denver Center
Mon 01:09:09 PM 39.2628 -100.4089 250° West 452 520 34,000  Level Denver Center
Mon 01:10:11 PM 39.2147 -100.5811 250° West 455 524 34,000  Level Denver Center
Mon 01:11:14 PM 39.1744 -100.7269 250° West 451 519 34,000  Level Denver Center
Mon 01:12:16 PM 39.1331 -100.8733 250° West 452 520 34,000  Level Denver Center
Mon 01:13:18 PM 39.0842 -101.0428 250° West 452 520 34,000  Level Denver Center
Mon 01:14:20 PM 39.0414 -101.1889 249° West 454 522 34,000  Level Denver Center
Mon 01:15:22 PM 38.9967 -101.3431 250° West 453 521 34,000  Level Denver Center
Mon 01:16:24 PM 38.9472 -101.5133 250° West 455 524 34,000  Level Denver Center
Mon 01:17:26 PM 38.9053 -101.6586 250° West 453 521 34,000  Level Denver Center
Mon 01:18:28 PM 38.8561 -101.8278 250° West 455 524 34,000  Level Denver Center
Mon 01:19:30 PM 38.8131 -101.9717 249° West 454 522 34,000  Level Denver Center
Mon 01:20:32 PM 38.7633 -102.1375 249° West 448 516 34,000  Level Denver Center
Mon 01:21:34 PM 38.7214 -102.2792 249° West 446 513 34,000 97 Level Denver Center
Mon 01:22:36 PM 38.6703 -102.4447 248° West 448 516 34,200 484 Climbing Denver Center
Mon 01:23:38 PM 38.6278 -102.5867 249° West 448 516 35,000 871 Climbing Denver Center
Mon 01:24:40 PM 38.5778 -102.7500 249° West 446 513 36,000 484 Climbing Denver Center
Mon 01:25:42 PM 38.5339 -102.8903 248° West 445 512 36,000  Level Denver Center
Mon 01:26:44 PM 38.4842 -103.0547 249° West 446 513 36,000  Level Denver Center
Mon 01:27:46 PM 38.4408 -103.1961 249° West 448 516 36,000  Level Denver Center
Mon 01:28:48 PM 38.3906 -103.3597 249° West 445 512 36,000  Level Denver Center
Mon 01:29:51 PM 38.3458 -103.5003 248° West 446 513 36,000  Level Denver Center
Mon 01:30:53 PM 38.2956 -103.6622 248° West 442 509 36,000  Level Denver Center
Mon 01:31:55 PM 38.2522 -103.8008 248° West 442 509 36,000  Level Denver Center
Mon 01:32:57 PM 38.2006 -103.9622 248° West 443 510 36,000  Level Denver Center
Mon 01:33:59 PM 38.1561 -104.1017 248° West 445 512 36,000  Level Denver Center
Mon 01:35:01 PM 38.1042 -104.2631 248° West 445 512 36,000  Level Denver Center
Mon 01:36:03 PM 38.0594 -104.4014 248° West 445 512 36,000  Level Denver Center
Mon 01:37:05 PM 38.0064 -104.5625 247° West 446 513 36,000  Level Denver Center
Mon 01:38:07 PM 37.9617 -104.7008 248° West 445 512 36,000  Level Denver Center
Mon 01:39:09 PM 37.9094 -104.8619 248° West 445 512 36,000  Level Denver Center
Mon 01:40:11 PM 37.8628 -105.0003 247° West 447 514 36,000  Level Denver Center
Mon 01:41:13 PM 37.8094 -105.1600 247° West 443 510 36,000  Level Denver Center
Mon 01:42:15 PM 37.7650 -105.2972 248° West 441 507 36,000  Level Denver Center
Mon 01:43:17 PM 37.7108 -105.4561 247° West 441 507 36,000  Level Denver Center
Mon 01:44:19 PM 37.6636 -105.5928 246° West 443 510 36,000  Level Denver Center
Mon 01:45:21 PM 37.6186 -105.7292 247° West 441 507 36,000  Level Denver Center
Mon 01:46:24 PM 37.5642 -105.8867 246° West 440 506 36,000  Level Denver Center
Mon 01:47:26 PM 37.5122 -106.0383 247° West 442 509 36,000  Level Denver Center
Mon 01:48:28 PM 37.4656 -106.1742 247° West 441 507 36,000  Level Denver Center
Mon 01:49:30 PM 37.4117 -106.3322 247° West 440 506 36,000  Level Denver Center
Mon 01:50:32 PM 37.3644 -106.4686 246° West 444 511 36,000  Level Denver Center
Mon 01:51:34 PM 37.3089 -106.6261 246° West 442 509 36,000  Level Denver Center
Mon 01:52:36 PM 37.2617 -106.7600 246° West 439 505 36,000  Level Denver Center
Mon 01:53:38 PM 37.2064 -106.9181 246° West 441 507 36,000  Level Denver Center
Mon 01:54:40 PM 37.1600 -107.0528 247° West 441 507 36,000  Level Denver Center
Mon 01:55:42 PM 37.1122 -107.1869 246° West 442 509 36,000  Level Denver Center
Mon 01:56:44 PM 37.0564 -107.3439 246° West 442 509 36,000  Level Denver Center
Mon 01:57:46 PM 37.0086 -107.4792 246° West 443 510 36,000  Level Denver Center
Mon 01:58:48 PM 36.9514 -107.6350 245° Southwest 442 509 36,000  Level Denver Center
Mon 01:59:50 PM 36.9033 -107.7692 246° West 442 509 36,000  Level Denver Center
Mon 02:00:52 PM 36.8458 -107.9239 245° Southwest 441 507 36,000  Level Denver Center
Mon 02:01:54 PM 36.8011 -108.0592 248° West 440 506 36,000  Level Denver Center
Mon 02:02:56 PM 36.7564 -108.2208 251° West 444 511 36,000  Level Denver Center
Mon 02:03:58 PM 36.7181 -108.3575 251° West 439 505 36,000  Level Denver Center
Mon 02:05:00 PM 36.6731 -108.5175 251° West 439 505 36,000  Level Denver Center
Mon 02:06:02 PM 36.6319 -108.6544 250° West 442 509 36,000  Level Denver Center
Mon 02:07:05 PM 36.5844 -108.8144 250° West 442 509 36,000  Level Denver Center
Mon 02:08:07 PM 36.5431 -108.9489 249° West 439 505 36,000  Level Denver Center
Mon 02:09:09 PM 36.4819 -109.1008 243° Southwest 443 510 36,000  Level Denver Center
Mon 02:10:11 PM 36.4314 -109.2317 244° Southwest 441 507 36,000  Level Denver Center
Mon 02:11:13 PM 36.3708 -109.3836 244° Southwest 442 509 36,000  Level Denver Center
Mon 02:12:15 PM 36.3189 -109.5150 244° Southwest 445 512 36,000  Level Denver Center
Mon 02:13:17 PM 36.2572 -109.6672 243° Southwest 445 512 36,000  Level Denver Center
Mon 02:14:19 PM 36.2058 -109.7972 244° Southwest 443 510 36,000  Level Denver Center
Mon 02:15:21 PM 36.1450 -109.9472 243° Southwest 440 506 36,000  Level Denver Center
Mon 02:16:23 PM 36.0933 -110.0758 244° Southwest 438 504 36,000  Level Denver Center
Mon 02:17:25 PM 36.0431 -110.2144 246° West 442 509 36,000  Level Denver Center
Mon 02:18:27 PM 36.0189 -110.3619 259° West 439 505 36,000  Level Denver Center
Mon 02:19:29 PM 35.9864 -110.5378 257° West 438 504 36,000  Level Denver Center
Mon 02:20:31 PM 35.9600 -110.6842 257° West 438 504 36,000  Level Denver Center
Mon 02:21:33 PM 35.9319 -110.8311 257° West 439 505 36,000  Level Denver Center
Mon 02:22:35 PM 35.9047 -110.9778 257° West 439 505 36,000  Level Denver Center
Mon 02:23:38 PM 35.8725 -111.1242 255° West 441 507 36,000  Level Denver Center
Mon 02:24:40 PM 35.8394 -111.2700 254° West 442 509 36,000  Level Denver Center
Mon 02:25:42 PM 35.8003 -111.4469 255° West 445 512 36,000  Level Denver Center
Mon 02:26:44 PM 35.7689 -111.5939 255° West 445 512 36,000  Level Denver Center
Mon 02:27:46 PM 35.7311 -111.7389 252° West 445 512 36,000  Level Denver Center
Mon 02:28:17 PM 35.7117 -111.8083 251° West 443 510 36,000  Level Los Angeles Center
Mon 02:29:19 PM 35.6536 -111.9378 241° Southwest 435 501 36,000  Level Los Angeles Center
Mon 02:30:09 PM 35.5994 -112.0353 236° Southwest 435 501 36,000  Level Albuquerque Center
Mon 02:31:11 PM 35.5322 -112.1569 236° Southwest 432 497 36,000  Level Albuquerque Center
Mon 02:32:26 PM 35.4394 -112.3297 237° Southwest 434 499 36,000  Level Los Angeles Center
Mon 02:33:28 PM 35.3714 -112.4522 236° Southwest 436 502 36,000  Level Los Angeles Center
Mon 02:34:17 PM 35.3167 -112.5492 235° Southwest 433 498 36,000  Level Albuquerque Center
Mon 02:35:19 PM 35.2483 -112.6728 236° Southwest 435 501 36,000  Level Albuquerque Center
Mon 02:36:20 PM 35.1789 -112.7967 236° Southwest 436 502 36,000  Level Albuquerque Center
Mon 02:37:22 PM 35.1097 -112.9214 236° Southwest 438 504 36,000  Level Albuquerque Center
Mon 02:38:24 PM 35.0414 -113.0439 236° Southwest 437 503 36,000  Level Albuquerque Center
Mon 02:39:26 PM 34.9736 -113.1639 235° Southwest 432 497 36,000 -145 Level Albuquerque Center
Mon 02:40:28 PM 34.8928 -113.3089 236° Southwest 432 497 35,700 -634 Descending Albuquerque Center
Mon 02:41:29 PM 34.8236 -113.4281 235° Southwest 433 498 34,700 -829 Descending Albuquerque Center
Mon 02:42:31 PM 34.7561 -113.5486 236° Southwest 433 498 34,000 -339 Descending Albuquerque Center
Mon 02:43:33 PM 34.6861 -113.6714 235° Southwest 439 505 34,000  Level Albuquerque Center
Mon 02:44:35 PM 34.6106 -113.8039 235° Southwest 436 502 34,000  Level Albuquerque Center
Mon 02:45:37 PM 34.5419 -113.9236 235° Southwest 434 499 34,000  Level Albuquerque Center
Mon 02:46:39 PM 34.4731 -114.0422 235° Southwest 431 496 34,000  Level Albuquerque Center
Mon 02:47:41 PM 34.4044 -114.1603 235° Southwest 430 495 34,000  Level Albuquerque Center
Mon 02:48:43 PM 34.3361 -114.2794 235° Southwest 430 495 34,000  Level Albuquerque Center
Mon 02:49:44 PM 34.2542 -114.4206 235° Southwest 428 493 34,000 -66 Level Albuquerque Center
Mon 02:50:14 PM 34.2239 -114.4739 236° Southwest 429 494 33,900  Descending Los Angeles Center
Mon 02:51:16 PM 34.1553 -114.5911 235° Southwest 429 494 34,000  Climbing Los Angeles Center
Mon 02:52:18 PM 34.0889 -114.7089 236° Southwest 428 493 33,900 -48 Descending Los Angeles Center
Mon 02:53:20 PM 34.0333 -114.8392 243° Southwest 433 498 33,900 48 Level Los Angeles Center
Mon 02:54:22 PM 33.9775 -114.9678 242° Southwest 435 501 34,000  Climbing Los Angeles Center
Mon 02:55:25 PM 33.9092 -115.1217 242° Southwest 435 501 33,900 -480 Descending Los Angeles Center
Mon 02:56:27 PM 33.8517 -115.2503 242° Southwest 436 502 33,000 -919 Descending Los Angeles Center
Mon 02:57:29 PM 33.7947 -115.3781 242° Southwest 436 502 32,000 -968 Descending Los Angeles Center
Mon 02:58:31 PM 33.7361 -115.5075 241° Southwest 440 506 31,000 -1,161 Descending Los Angeles Center
Mon 02:59:33 PM 33.6783 -115.6372 242° Southwest 442 509 29,600 -2,032 Descending Los Angeles Center
Mon 03:00:35 PM 33.6061 -115.7900 240° Southwest 440 506 26,800 -2,371 Descending Los Angeles Center
Mon 03:01:37 PM 33.5392 -115.9067 235° Southwest 430 495 24,700 -1,403 Descending Los Angeles Center
Mon 03:02:39 PM 33.4575 -116.0014 224° Southwest 419 482 23,900 -1,776 Descending Los Angeles Center
Mon 03:03:42 PM 33.3689 -116.0892 220° Southwest 413 475 21,000 -2,544 Descending Los Angeles Center
Mon 03:04:44 PM 33.2786 -116.1781 219° Southwest 418 481 18,600 -2,516 Descending Los Angeles Center
Mon 03:05:46 PM 33.1914 -116.2622 219° Southwest 409 471 15,800 -3,145 Descending Los Angeles Center
Mon 03:06:48 PM 33.0928 -116.3586 219° Southwest 389 448 12,100 -1,839 Descending Los Angeles Center
Mon 03:07:50 PM 33.0183 -116.4311 219° Southwest 345 397 12,000 -339 Descending Los Angeles Center
Mon 03:08:52 PM 32.9414 -116.4814 209° Southwest 319 367 11,400 -823 Descending Los Angeles Center
Mon 03:09:54 PM 32.8544 -116.5319 206° Southwest 313 360 10,300 -1,008 Descending Los Angeles Center
Mon 03:10:57 PM 32.8064 -116.6106 234° Southwest 305 351 9,300 -1,200 Descending Los Angeles Center
Mon 03:11:59 PM 32.7650 -116.6953 240° Southwest 298 343 7,800 -1,452 Descending Los Angeles Center
Mon 03:13:01 PM 32.7264 -116.7778 241° Southwest 291 335 6,300 -976 Descending Los Angeles Center
Mon 03:14:02 PM 32.6981 -116.8433 243° Southwest 284 327 5,800 -774 Descending Los Angeles Center
Mon 03:15:05 PM 32.6722 -116.9356 252° West 252 290 4,700 -1,547 Descending Los Angeles Center
Mon 03:16:10 PM 32.7000 -117.0333 289° West 220 253 2,500 -1,440 Descending Southern California TRACON
Mon 03:17:10 PM 32.7167 -117.0833 292° West 178 205 1,700 -800 Descending Southern California TRACON
Mon 03:18:10 PM 32.7167 -117.1333 270° West 136 157 900 -678 Descending Southern California TRACON
Mon 03:19:05 PM 32.7333 -117.1667 301° West 140 161 400 -545 Descending Southern California TRACON

Login

Don't have an account? Register now (free) for customized features, flight alerts, and more!